Time;durP1;ratioP1;P1;durP2;ratioP2;P2;SDS_P1;SDS_P2;PMS_P1;PMS_P2;Temp;Humidity;BMP_temperature;BMP_pressure;BME280_temperature;BME280_humidity;BME280_pressure;Samples;Min_cycle;Max_cycle;Signal;HPM_P1;HPM_P2
2022/01/07 00:03:00;;;;;;;16.95;10.38;;;;;;;2.92;100.00;99664.98;1689624;85;21770;-77
2022/01/07 00:06:07;;;;;;;22.40;12.13;;;;;;;2.87;100.00;99653.73;1700080;84;21231;-77
2022/01/07 00:09:12;;;;;;;24.37;12.45;;;;;;;2.83;100.00;99659.09;1690867;85;21837;-77
2022/01/07 00:12:21;;;;;;;18.92;11.30;;;;;;;2.80;100.00;99668.32;1699910;84;21243;-77
2022/01/07 00:15:26;;;;;;;17.20;11.50;;;;;;;2.77;100.00;99658.64;1690938;85;22661;-81
2022/01/07 00:18:32;;;;;;;19.27;11.03;;;;;;;2.75;100.00;99675.50;1699212;84;21239;-76
2022/01/07 00:21:37;;;;;;;26.40;11.18;;;;;;;2.73;100.00;99672.56;1690098;85;21334;-77
2022/01/07 00:24:43;;;;;;;15.08;9.45;;;;;;;2.73;100.00;99680.67;1700690;84;21310;-76
2022/01/07 00:27:48;;;;;;;15.58;8.85;;;;;;;2.71;100.00;99676.77;1689428;85;21346;-79
2022/01/07 00:30:54;;;;;;;17.57;8.70;;;;;;;2.68;100.00;99668.09;1700245;84;21337;-76
2022/01/07 00:33:59;;;;;;;16.10;7.42;;;;;;;2.62;100.00;99667.31;1689637;85;21710;-82
2022/01/07 00:37:04;;;;;;;18.55;8.45;;;;;;;2.56;100.00;99686.29;1699402;84;21243;-77
2022/01/07 00:40:12;;;;;;;17.48;8.18;;;;;;;2.50;100.00;99676.91;1690804;85;21712;-77
2022/01/07 00:43:18;;;;;;;17.87;8.35;;;;;;;2.45;100.00;99690.48;1700799;84;21212;-82
2022/01/07 00:46:23;;;;;;;19.50;7.92;;;;;;;2.43;100.00;99693.79;1690219;85;21900;-77
2022/01/07 00:49:29;;;;;;;19.52;8.45;;;;;;;2.41;100.00;99701.19;1700402;84;21200;-81
2022/01/07 00:52:34;;;;;;;14.33;8.40;;;;;;;2.40;100.00;99694.06;1694806;83;21184;-81
2022/01/07 00:55:41;;;;;;;21.02;8.35;;;;;;;2.38;100.00;99695.56;1703429;83;21594;-77
2022/01/07 00:58:46;;;;;;;17.92;7.85;;;;;;;2.37;100.00;99677.66;1693205;83;21354;-76
2022/01/07 01:01:51;;;;;;;15.65;7.92;;;;;;;2.36;100.00;99681.86;1699663;84;21310;-76
2022/01/07 01:04:58;;;;;;;14.38;8.25;;;;;;;2.35;100.00;99684.18;1690264;85;21354;-76
2022/01/07 01:07:58;;;;;;;14.40;8.15;;;;;;;2.33;100.00;99687.52;1699580;84;21322;-80
2022/01/07 01:10:51;;;;;;;16.65;8.48;;;;;;;2.31;100.00;99693.08;1690365;85;21810;-82
2022/01/07 01:13:57;;;;;;;18.27;7.10;;;;;;;2.27;100.00;99700.59;1692457;84;21275;-76
2022/01/07 01:17:02;;;;;;;14.85;8.35;;;;;;;2.24;100.00;99698.66;1689251;85;21334;-80
2022/01/07 01:20:07;;;;;;;18.60;9.73;;;;;;;2.21;100.00;99698.45;1688883;85;21230;-80
2022/01/07 01:23:13;;;;;;;13.72;7.78;;;;;;;2.21;100.00;99705.66;1689247;85;21832;-76
2022/01/07 01:26:20;;;;;;;14.05;7.62;;;;;;;2.23;100.00;99714.49;1688622;85;21306;-81
2022/01/07 01:29:27;;;;;;;14.30;7.35;;;;;;;2.24;100.00;99717.54;1689120;85;21326;-81
2022/01/07 01:32:33;;;;;;;15.55;8.63;;;;;;;2.23;100.00;99717.19;1687798;85;21200;-76
2022/01/07 01:35:40;;;;;;;18.32;9.85;;;;;;;2.24;100.00;99719.74;1687951;85;21315;-77
2022/01/07 01:38:47;;;;;;;13.98;8.55;;;;;;;2.21;100.00;99717.34;1688032;85;21361;-78
2022/01/07 01:41:52;;;;;;;15.10;9.40;;;;;;;2.18;100.00;99724.84;1688295;85;21379;-83
2022/01/07 01:44:58;;;;;;;14.30;8.58;;;;;;;2.13;100.00;99717.16;1689186;85;21228;-82
2022/01/07 01:48:04;;;;;;;18.48;9.15;;;;;;;2.08;100.00;99716.72;1687639;85;21324;-82
2022/01/07 01:51:10;;;;;;;20.23;10.00;;;;;;;2.05;100.00;99715.63;1687732;85;21302;-82
2022/01/07 01:54:16;;;;;;;15.85;8.88;;;;;;;2.03;100.00;99718.98;1689065;85;21817;-76
2022/01/07 01:57:21;;;;;;;17.12;9.15;;;;;;;2.03;100.00;99724.38;1687930;85;21788;-76
2022/01/07 02:00:22;;;;;;;13.30;8.13;;;;;;;2.02;100.00;99726.22;1673237;85;21252;-82
2022/01/07 02:03:28;;;;;;;13.90;8.38;;;;;;;2.04;100.00;99730.97;1689110;85;21909;-82
2022/01/07 02:06:33;;;;;;;13.83;8.13;;;;;;;2.05;100.00;99735.37;1689068;85;21344;-77
2022/01/07 02:09:40;;;;;;;15.63;7.28;;;;;;;2.06;100.00;99725.42;1689237;85;21374;-81
2022/01/07 02:12:45;;;;;;;17.80;7.87;;;;;;;2.09;100.00;99729.21;1674727;85;21956;-77
2022/01/07 02:15:51;;;;;;;12.10;6.90;;;;;;;2.10;100.00;99722.81;1699148;84;21298;-82
2022/01/07 02:18:58;;;;;;;11.93;7.92;;;;;;;2.13;100.00;99739.24;1689897;85;21189;-82
2022/01/07 02:22:03;;;;;;;12.58;7.03;;;;;;;2.09;100.00;99734.61;1700265;84;21303;-77
2022/01/07 02:25:10;;;;;;;12.07;6.42;;;;;;;2.07;100.00;99735.25;1689497;85;21257;-82
2022/01/07 02:28:15;;;;;;;12.47;7.33;;;;;;;2.05;100.00;99738.56;1700167;84;21315;-82
2022/01/07 02:31:20;;;;;;;9.73;6.22;;;;;;;2.03;100.00;99750.00;1690359;85;21260;-82
2022/01/07 02:34:26;;;;;;;14.90;6.50;;;;;;;2.02;100.00;99752.31;1700653;84;21346;-82
2022/01/07 02:37:32;;;;;;;13.58;7.92;;;;;;;2.01;100.00;99753.31;1689930;85;21334;-82
2022/01/07 02:40:39;;;;;;;12.18;7.50;;;;;;;1.99;100.00;99758.84;1699324;83;21326;-82
2022/01/07 02:43:45;;;;;;;10.18;5.83;;;;;;;2.00;100.00;99763.75;1690781;85;21338;-77
2022/01/07 02:46:52;;;;;;;11.20;5.87;;;;;;;1.99;100.00;99770.98;1699698;84;21310;-82
2022/01/07 02:50:04;;;;;;;16.52;6.50;;;;;;;1.99;100.00;99780.92;1690944;85;21299;-80
2022/01/07 02:53:07;;;;;;;13.70;5.78;;;;;;;1.98;100.00;99790.87;1699413;84;21318;-77
2022/01/07 02:56:12;;;;;;;21.37;7.37;;;;;;;1.97;100.00;99789.13;1690392;85;21310;-77
2022/01/07 02:59:18;;;;;;;13.13;7.33;;;;;;;1.94;100.00;99790.77;1699907;84;21313;-83
2022/01/07 03:02:24;;;;;;;9.03;6.05;;;;;;;1.94;100.00;99792.12;1689686;85;21211;-82
2022/01/07 03:05:30;;;;;;;9.63;6.87;;;;;;;1.96;100.00;99790.63;1699266;84;21362;-81
2022/01/07 03:08:37;;;;;;;12.13;6.33;;;;;;;1.96;100.00;99798.72;1689784;85;21228;-76
2022/01/07 03:11:43;;;;;;;12.00;6.15;;;;;;;2.01;100.00;99805.91;1699755;84;21331;-77
2022/01/07 03:14:49;;;;;;;8.08;5.30;;;;;;;2.04;100.00;99812.40;1691084;83;21185;-78
2022/01/07 03:17:57;;;;;;;8.30;6.20;;;;;;;2.04;100.00;99823.19;1699219;84;21223;-82
2022/01/07 03:21:03;;;;;;;9.08;5.55;;;;;;;2.03;100.00;99826.38;1690412;85;21331;-77
2022/01/07 03:24:10;;;;;;;10.03;5.80;;;;;;;2.03;100.00;99829.58;1700617;84;21330;-77
2022/01/07 03:27:15;;;;;;;10.35;5.92;;;;;;;2.05;100.00;99832.98;1689726;85;21334;-82
2022/01/07 03:30:23;;;;;;;8.13;5.55;;;;;;;2.07;100.00;99834.19;1699466;84;21847;-82
2022/01/07 03:33:29;;;;;;;9.80;5.80;;;;;;;2.05;100.00;99835.19;1690939;85;21289;-77
2022/01/07 03:36:34;;;;;;;9.58;5.83;;;;;;;2.08;100.00;99846.72;1699905;84;21314;-77
2022/01/07 03:39:40;;;;;;;13.58;6.20;;;;;;;2.10;100.00;99846.92;1689659;85;21792;-81
2022/01/07 03:42:46;;;;;;;8.15;5.22;;;;;;;2.07;100.00;99858.01;1700615;84;21835;-77
2022/01/07 03:45:52;;;;;;;10.90;5.20;;;;;;;2.06;100.00;99860.31;1690471;85;21875;-77
2022/01/07 03:48:57;;;;;;;10.38;5.50;;;;;;;2.04;100.00;99856.91;1700518;84;21863;-82
2022/01/07 03:52:02;;;;;;;10.28;6.00;;;;;;;2.04;100.00;99859.61;1689848;85;21818;-82
2022/01/07 03:55:07;;;;;;;8.78;5.45;;;;;;;2.02;100.00;99859.75;1700699;84;21359;-81
2022/01/07 03:58:11;;;;;;;10.13;5.67;;;;;;;2.00;100.00;99863.55;1689612;85;21280;-81
2022/01/07 04:01:16;;;;;;;10.82;6.28;;;;;;;1.97;100.00;99867.86;1700146;84;21334;-76
2022/01/07 04:04:22;;;;;;;10.88;6.83;;;;;;;1.94;100.00;99872.19;1690928;85;21295;-81
2022/01/07 04:07:31;;;;;;;15.40;7.87;;;;;;;1.90;100.00;99878.83;1699085;84;21322;-78
2022/01/07 04:10:36;;;;;;;14.03;8.00;;;;;;;1.86;100.00;99871.98;1689713;85;21207;-82
2022/01/07 04:13:44;;;;;;;14.00;7.65;;;;;;;1.82;100.00;99867.33;1700565;84;21232;-82
2022/01/07 04:16:51;;;;;;;14.65;7.72;;;;;;;1.75;100.00;99868.36;1689810;85;21346;-77
2022/01/07 04:19:56;;;;;;;15.98;8.63;;;;;;;1.68;100.00;99869.86;1700090;84;21310;-79
2022/01/07 04:23:02;;;;;;;15.25;8.75;;;;;;;1.58;100.00;99866.23;1690724;85;21214;-78
2022/01/07 04:26:10;;;;;;;15.75;7.20;;;;;;;1.51;100.00;99878.04;1700069;84;21338;-77
2022/01/07 04:29:15;;;;;;;15.25;8.93;;;;;;;1.45;100.00;99874.49;1690884;85;21807;-82
2022/01/07 04:32:20;;;;;;;13.58;8.30;;;;;;;1.44;100.00;99881.37;1699299;84;21749;-77
2022/01/07 04:35:26;;;;;;;15.10;9.23;;;;;;;1.42;100.00;99879.30;1690926;85;21971;-77
2022/01/07 04:38:32;;;;;;;17.42;8.70;;;;;;;1.40;100.00;99886.65;1700935;84;21916;-81
2022/01/07 04:41:37;;;;;;;15.35;8.50;;;;;;;1.35;100.00;99892.42;1690982;85;21357;-77
2022/01/07 04:44:46;;;;;;;20.27;10.70;;;;;;;1.28;100.00;99893.44;1717751;83;21362;-82
2022/01/07 04:47:50;;;;;;;14.28;9.68;;;;;;;1.20;100.00;99895.05;1684751;85;21186;-77
2022/01/07 04:50:56;;;;;;;14.20;10.32;;;;;;;1.13;100.00;99901.45;1669483;84;21869;-77
2022/01/07 04:54:01;;;;;;;16.42;9.68;;;;;;;1.06;100.00;99903.41;1669823;86;21750;-82
2022/01/07 04:57:06;;;;;;;18.00;11.40;;;;;;;1.00;100.00;99903.42;1669756;84;21249;-82
2022/01/07 05:00:14;;;;;;;16.15;10.45;;;;;;;0.96;100.00;99916.28;1669855;84;21300;-77
2022/01/07 05:03:19;;;;;;;15.03;10.08;;;;;;;0.91;100.00;99937.34;1669839;86;21205;-79
2022/01/07 05:06:44;;;;;;;15.93;10.60;;;;;;;0.86;100.00;99937.35;1685111;84;21329;-81
2022/01/07 05:09:34;;;;;;;21.10;11.68;;;;;;;0.79;100.00;99946.39;1685258;85;21230;-82
2022/01/07 05:12:39;;;;;;;20.15;11.18;;;;;;;0.73;100.00;99951.78;1685124;85;21285;-77
2022/01/07 05:15:44;;;;;;;19.00;12.30;;;;;;;0.68;100.00;99955.33;1685028;84;21724;-82
2022/01/07 05:18:50;;;;;;;21.60;12.70;;;;;;;0.64;100.00;99955.20;1685116;85;21289;-78
2022/01/07 05:21:55;;;;;;;20.43;12.00;;;;;;;0.62;100.00;99960.36;1684328;84;21876;-77
2022/01/07 05:25:01;;;;;;;27.87;12.10;;;;;;;0.59;100.00;99953.38;1685540;85;21205;-77
2022/01/07 05:28:05;;;;;;;15.28;10.30;;;;;;;0.57;100.00;99965.25;1685163;85;21257;-82
2022/01/07 05:31:11;;;;;;;17.07;12.37;;;;;;;0.57;100.00;99971.48;1684603;84;21341;-82
2022/01/07 05:34:16;;;;;;;19.07;11.03;;;;;;;0.57;100.00;99972.84;1685179;85;21775;-82
2022/01/07 05:37:20;;;;;;;27.37;13.13;;;;;;;0.61;100.00;99994.50;1685305;84;21190;-77
2022/01/07 05:40:25;;;;;;;21.68;13.13;;;;;;;0.62;100.00;99998.90;1685568;84;21333;-83
2022/01/07 05:43:30;;;;;;;20.95;12.03;;;;;;;0.63;100.00;100003.79;1685668;84;21317;-77
2022/01/07 05:46:35;;;;;;;20.77;13.18;;;;;;;0.63;100.00;100015.91;1685390;84;21421;-82
2022/01/07 05:49:41;;;;;;;19.82;12.33;;;;;;;0.61;100.00;100024.56;1685826;85;21182;-80
2022/01/07 05:52:46;;;;;;;16.93;11.22;;;;;;;0.60;100.00;100033.13;1685313;85;21170;-82
2022/01/07 05:55:52;;;;;;;19.75;11.40;;;;;;;0.61;100.00;100039.38;1685431;84;21345;-77
2022/01/07 05:58:58;;;;;;;19.57;13.10;;;;;;;0.61;100.00;100051.03;1685635;85;21317;-82
2022/01/07 06:02:03;;;;;;;22.67;12.47;;;;;;;0.64;100.00;100058.84;1685611;84;21337;-83
2022/01/07 06:05:09;;;;;;;21.00;11.90;;;;;;;0.72;100.00;100068.53;1685366;84;21669;-77
2022/01/07 06:08:14;;;;;;;20.40;12.03;;;;;;;0.79;100.00;100076.98;1685742;85;21337;-82
2022/01/07 06:11:19;;;;;;;22.60;11.78;;;;;;;0.87;100.00;100088.02;1685510;84;21214;-82
2022/01/07 06:14:25;;;;;;;24.37;13.25;;;;;;;0.93;100.00;100083.48;1685322;85;21870;-80
2022/01/07 06:17:30;;;;;;;20.72;13.28;;;;;;;0.96;100.00;100079.71;1685310;84;22098;-78
2022/01/07 06:20:34;;;;;;;22.13;12.88;;;;;;;0.95;100.00;100084.73;1685456;84;21373;-82
2022/01/07 06:23:32;;;;;;;20.08;12.75;;;;;;;0.97;100.00;100087.66;1685822;85;21293;-77
2022/01/07 06:26:24;;;;;;;22.30;12.25;;;;;;;0.99;100.00;100095.64;1685138;84;21368;-83
2022/01/07 06:29:29;;;;;;;22.30;12.30;;;;;;;0.99;100.00;100086.22;1685409;85;21325;-78
2022/01/07 06:32:34;;;;;;;23.32;13.18;;;;;;;0.99;100.00;100089.77;1685419;85;21354;-78
2022/01/07 06:35:40;;;;;;;18.45;10.98;;;;;;;1.02;100.00;100097.58;1685371;84;21328;-82
2022/01/07 06:38:48;;;;;;;17.15;10.68;;;;;;;1.07;100.00;100099.06;1685639;85;21364;-82
2022/01/07 06:41:53;;;;;;;17.87;11.22;;;;;;;1.14;100.00;100111.94;1685120;84;21225;-82
2022/01/07 06:45:02;;;;;;;22.75;12.00;;;;;;;1.19;100.00;100106.19;1685310;84;21246;-82
2022/01/07 06:48:07;;;;;;;17.95;11.78;;;;;;;1.21;100.00;100125.27;1684994;85;21301;-81
2022/01/07 06:51:12;;;;;;;22.90;13.75;;;;;;;1.21;100.00;100129.31;1685049;84;21203;-78
2022/01/07 06:54:18;;;;;;;22.27;12.40;;;;;;;1.21;100.00;100124.42;1685230;85;21289;-79
2022/01/07 06:57:22;;;;;;;19.02;12.20;;;;;;;1.18;100.00;100121.49;1685069;84;21625;-81
2022/01/07 07:00:28;;;;;;;24.72;13.58;;;;;;;1.17;100.00;100124.29;1685089;84;21221;-78
2022/01/07 07:03:35;;;;;;;21.75;13.10;;;;;;;1.16;100.00;100127.47;1685008;85;21298;-82
2022/01/07 07:06:39;;;;;;;26.27;14.33;;;;;;;1.16;100.00;100125.27;1685183;84;21217;-77
2022/01/07 07:09:45;;;;;;;25.20;13.18;;;;;;;1.16;100.00;100127.47;1683967;84;21194;-77
2022/01/07 07:12:50;;;;;;;22.90;13.10;;;;;;;1.17;100.00;100125.63;1685207;85;21326;-77
2022/01/07 07:15:56;;;;;;;24.50;14.10;;;;;;;1.21;100.00;100131.16;1685019;84;21807;-82
2022/01/07 07:19:01;;;;;;;21.95;13.10;;;;;;;1.22;100.00;100139.14;1685251;85;21194;-82
2022/01/07 07:22:07;;;;;;;22.58;14.10;;;;;;;1.24;100.00;100143.05;1685028;84;21337;-81
2022/01/07 07:25:13;;;;;;;21.30;12.43;;;;;;;1.24;100.00;100151.98;1685226;84;21895;-82
2022/01/07 07:28:19;;;;;;;16.93;11.10;;;;;;;1.26;100.00;100166.67;1685206;85;21301;-82
2022/01/07 07:31:24;;;;;;;24.90;12.23;;;;;;;1.26;100.00;100164.84;1685189;84;21366;-82
2022/01/07 07:37:45;;;;;;;19.05;13.15;;;;;;;1.27;100.00;100177.36;1685364;85;21301;-77
2022/01/07 07:40:51;;;;;;;23.98;14.43;;;;;;;1.28;100.00;100176.86;1685006;84;21324;-78
2022/01/07 07:43:57;;;;;;;23.60;13.85;;;;;;;1.28;100.00;100168.29;1684862;85;21321;-81
2022/01/07 07:47:02;;;;;;;20.52;12.60;;;;;;;1.32;100.00;100169.37;1686169;84;21238;-82
2022/01/07 07:50:08;;;;;;;21.23;14.18;;;;;;;1.34;100.00;100174.17;1688177;84;21876;-82
2022/01/07 07:53:13;;;;;;;24.47;15.03;;;;;;;1.35;100.00;100177.23;1687764;85;21320;-83
2022/01/07 07:56:20;;;;;;;21.95;14.75;;;;;;;1.36;100.00;100177.59;1687768;84;21250;-77
2022/01/07 07:59:25;;;;;;;28.00;14.38;;;;;;;1.39;100.00;100180.91;1688013;85;21295;-82
2022/01/07 08:02:30;;;;;;;28.17;14.83;;;;;;;1.44;100.00;100186.80;1687834;84;21237;-81
2022/01/07 08:05:37;;;;;;;21.82;13.80;;;;;;;1.45;100.00;100183.61;1687872;84;21402;-82
2022/01/07 08:08:42;;;;;;;27.35;15.32;;;;;;;1.48;100.00;100191.45;1688080;85;21190;-82
2022/01/07 08:11:53;;;;;;;22.40;13.25;;;;;;;1.52;100.00;100194.28;1686557;84;21229;-81
2022/01/07 08:18:23;;;;;;;25.27;14.30;;;;;;;1.60;100.00;100189.16;1691415;84;21309;-81
2022/01/07 08:21:30;;;;;;;21.97;14.25;;;;;;;1.64;100.00;100191.09;1692840;83;21197;-81
2022/01/07 08:24:35;;;;;;;24.05;14.65;;;;;;;1.64;100.00;100205.92;1689353;85;21814;-81
2022/01/07 08:27:40;;;;;;;19.05;12.85;;;;;;;1.65;100.00;100208.52;1687721;85;21305;-77
2022/01/07 08:31:23;;;;;;;21.17;12.43;;;;;;;1.68;100.00;100205.55;1687879;84;21262;-82
2022/01/07 08:37:34;;;;;;;28.80;11.95;;;;;;;1.68;100.00;100216.34;1687661;85;21344;-81
2022/01/07 08:40:39;;;;;;;20.40;12.07;;;;;;;1.69;100.00;100210.45;1687967;84;21341;-78
2022/01/07 08:43:45;;;;;;;16.95;10.63;;;;;;;1.71;99.96;100216.11;1668576;85;21324;-81
2022/01/07 08:46:52;;;;;;;14.28;10.32;;;;;;;1.77;100.00;100222.84;1686340;84;21241;-81
2022/01/07 08:49:57;;;;;;;17.90;10.05;;;;;;;1.90;100.00;100222.73;1685212;85;21179;-82
2022/01/07 08:53:02;;;;;;;15.05;9.18;;;;;;;2.04;100.00;100234.62;1684977;85;21767;-82
2022/01/07 08:56:09;;;;;;;16.75;8.63;;;;;;;2.13;99.21;100231.17;1683599;84;21226;-78
2022/01/07 08:59:14;;;;;;;11.43;7.90;;;;;;;2.18;97.19;100232.16;1685107;85;21285;-81
2022/01/07 09:02:19;;;;;;;14.83;8.48;;;;;;;2.14;94.84;100230.19;1684976;84;21328;-81
2022/01/07 09:05:24;;;;;;;12.50;7.60;;;;;;;2.14;95.94;100233.38;1685121;84;21301;-77
2022/01/07 09:08:31;;;;;;;11.57;8.13;;;;;;;2.17;95.43;100243.45;1685301;85;21270;-79
2022/01/07 09:11:37;;;;;;;8.90;6.47;;;;;;;2.19;95.30;100248.21;1685358;84;21380;-77
2022/01/07 09:14:42;;;;;;;11.95;7.72;;;;;;;2.20;94.64;100247.22;1685266;85;21352;-77
2022/01/07 09:17:49;;;;;;;14.90;6.42;;;;;;;2.15;93.43;100264.28;1685377;85;21317;-77
2022/01/07 09:20:54;;;;;;;11.30;7.12;;;;;;;2.10;92.47;100270.54;1685363;84;21226;-77
2022/01/07 09:24:00;;;;;;;8.55;5.85;;;;;;;2.08;92.00;100276.56;1685318;85;21309;-82
2022/01/07 09:27:06;;;;;;;7.17;5.28;;;;;;;2.10;92.62;100249.45;1685209;84;21333;-77
2022/01/07 09:30:12;;;;;;;9.38;5.40;;;;;;;2.05;90.25;100259.27;1685152;84;21183;-82
2022/01/07 09:33:17;;;;;;;6.72;4.80;;;;;;;2.00;90.20;100261.47;1685636;85;21826;-82
2022/01/07 09:36:23;;;;;;;8.53;5.85;;;;;;;1.91;88.71;100260.36;1684476;84;21316;-81
2022/01/07 09:39:29;;;;;;;10.40;4.97;;;;;;;1.85;89.09;100263.56;1685313;85;21174;-82
2022/01/07 09:42:35;;;;;;;7.53;5.20;;;;;;;1.85;88.42;100261.35;1685332;85;21332;-77
2022/01/07 09:45:41;;;;;;;5.97;4.70;;;;;;;1.89;89.04;100268.23;1685336;84;21262;-77
2022/01/07 09:48:46;;;;;;;8.13;4.78;;;;;;;1.92;89.81;100263.42;1685463;84;21361;-77
2022/01/07 09:51:51;;;;;;;7.85;5.40;;;;;;;1.95;88.56;100247.50;1685501;84;21356;-77
2022/01/07 09:54:57;;;;;;;7.03;4.78;;;;;;;1.96;87.76;100249.20;1685262;85;21755;-77
2022/01/07 09:58:02;;;;;;;4.80;4.10;;;;;;;1.96;87.24;100253.25;1685567;85;21191;-79
2022/01/07 10:01:19;;;;;;;7.25;4.83;;;;;;;1.94;87.50;100249.83;1685473;84;21921;-76
2022/01/07 10:04:43;;;;;;;6.90;4.45;;;;;;;1.92;86.32;100261.22;1684943;85;21324;-82
2022/01/07 10:07:48;;;;;;;7.58;4.80;;;;;;;1.93;87.30;100260.23;1685458;85;21289;-82
2022/01/07 10:10:54;;;;;;;5.50;4.08;;;;;;;2.03;88.04;100276.93;1685562;84;21210;-82
2022/01/07 10:14:25;;;;;;;7.55;3.72;;;;;;;2.16;86.45;100264.64;1685351;85;21321;-79
2022/01/07 10:17:32;;;;;;;4.65;3.60;;;;;;;2.17;84.09;100260.98;1685316;85;21789;-79
2022/01/07 10:20:43;;;;;;;5.45;3.65;;;;;;;2.16;84.58;100271.39;1685402;84;21242;-77
2022/01/07 10:23:49;;;;;;;5.90;3.77;;;;;;;2.05;83.56;100268.70;1685237;85;21301;-77
2022/01/07 10:27:15;;;;;;;6.22;3.77;;;;;;;2.01;85.86;100265.88;1685126;84;21886;-81
2022/01/07 10:30:26;;;;;;;8.50;3.77;;;;;;;2.13;85.92;100244.67;1659404;85;21179;-77
2022/01/07 10:33:44;;;;;;;4.78;3.37;;;;;;;2.23;83.54;100291.52;1659259;86;21321;-81
2022/01/07 10:36:48;;;;;;;4.65;3.37;;;;;;;2.23;83.47;100290.16;1685345;84;21218;-77
2022/01/07 10:39:53;;;;;;;3.42;2.90;;;;;;;2.22;83.32;100296.55;1685286;85;21514;-77
2022/01/07 10:43:21;;;;;;;3.58;2.72;;;;;;;2.24;82.55;100299.13;1685327;85;21895;-77
2022/01/07 10:46:31;;;;;;;5.67;2.98;;;;;;;2.26;79.64;100309.32;1684608;84;21344;-81
2022/01/07 10:49:39;;;;;;;4.03;2.87;;;;;;;2.22;79.13;100303.30;1684514;85;21198;-77
2022/01/07 10:52:45;;;;;;;3.37;2.50;;;;;;;2.18;80.24;100315.32;1688392;85;22250;-77
2022/01/07 10:56:11;;;;;;;4.05;3.12;;;;;;;2.21;79.92;100318.25;1688096;84;21209;-81
2022/01/07 10:59:18;;;;;;;5.15;2.80;;;;;;;2.22;80.09;100330.29;1688063;85;21187;-77
2022/01/07 11:02:23;;;;;;;4.67;3.02;;;;;;;2.16;78.61;100328.06;1688243;84;21238;-81
2022/01/07 11:05:28;;;;;;;5.70;3.27;;;;;;;2.10;78.38;100331.75;1669541;84;21317;-77
2022/01/07 11:08:33;;;;;;;8.70;5.03;;;;;;;1.94;78.40;100338.36;1688526;85;21313;-78
2022/01/07 11:11:38;;;;;;;4.37;3.08;;;;;;;1.88;80.46;100336.61;1669292;85;21198;-81
2022/01/07 11:14:43;;;;;;;3.22;2.47;;;;;;;1.83;80.52;100342.86;1688513;85;21222;-77
2022/01/07 11:17:49;;;;;;;4.12;2.60;;;;;;;1.81;79.80;100332.20;1688896;85;21164;-78
2022/01/07 11:21:00;;;;;;;3.98;2.50;;;;;;;1.89;80.76;100345.11;1688204;84;21337;-77
2022/01/07 11:24:02;;;;;;;4.45;2.92;;;;;;;1.95;81.05;100354.91;1688195;85;21333;-81
2022/01/07 11:27:08;;;;;;;8.05;2.92;;;;;;;1.98;77.67;100356.52;1687047;84;21783;-77
2022/01/07 11:30:18;;;;;;;3.45;2.70;;;;;;;1.96;78.04;100363.37;1688208;84;21300;-77
2022/01/07 11:33:24;;;;;;;3.92;2.80;;;;;;;1.93;76.06;100361.39;1689195;85;21826;-81
2022/01/07 11:36:42;;;;;;;4.00;2.87;;;;;;;1.96;77.52;100362.51;1688442;84;21755;-81
2022/01/07 11:39:48;;;;;;;5.95;2.47;;;;;;;1.95;76.88;100364.84;1689435;85;21342;-81
2022/01/07 11:42:54;;;;;;;3.20;2.47;;;;;;;1.96;75.74;100373.30;1688191;85;21878;-77
2022/01/07 11:45:59;;;;;;;2.45;2.02;;;;;;;1.94;76.32;100371.23;1688085;84;21380;-82
2022/01/07 11:49:06;;;;;;;2.87;2.42;;;;;;;1.94;76.51;100380.67;1687884;85;21222;-78
2022/01/07 11:52:43;;;;;;;4.35;2.77;;;;;;;1.94;75.10;100373.43;1682661;84;21732;-77
2022/01/07 11:55:53;;;;;;;4.92;2.30;;;;;;;1.91;75.55;100391.69;1685254;84;21344;-77
2022/01/07 11:58:58;;;;;;;3.60;2.40;;;;;;;1.81;76.04;100387.98;1685075;85;21920;-81
2022/01/07 12:02:07;;;;;;;3.55;2.62;;;;;;;1.71;76.49;100402.18;1685153;84;21348;-77
2022/01/07 12:05:38;;;;;;;5.28;2.42;;;;;;;1.64;77.65;100403.61;1684853;84;21333;-77
2022/01/07 12:08:51;;;;;;;2.80;1.95;;;;;;;1.56;78.04;100397.11;1684971;85;21305;-77
2022/01/07 12:12:20;;;;;;;3.70;2.40;;;;;;;1.52;79.11;100409.95;1685114;84;21324;-77
2022/01/07 12:15:25;;;;;;;3.87;2.40;;;;;;;1.51;78.41;100406.89;1685398;84;21166;-77
2022/01/07 12:18:32;;;;;;;3.10;2.40;;;;;;;1.52;79.68;100413.50;1685258;85;21838;-77
2022/01/07 12:21:38;;;;;;;4.40;2.55;;;;;;;1.50;80.35;100418.13;1647825;85;21191;-82
2022/01/07 12:24:43;;;;;;;4.05;2.75;;;;;;;1.48;80.34;100423.28;1685123;85;21300;-79
2022/01/07 12:27:49;;;;;;;3.47;2.40;;;;;;;1.44;80.28;100426.69;1685212;85;21301;-81
2022/01/07 12:30:54;;;;;;;3.30;2.55;;;;;;;1.44;80.59;100428.53;1685063;84;21871;-77
2022/01/07 12:34:00;;;;;;;4.03;3.02;;;;;;;1.45;80.16;100437.84;1685252;85;21300;-78
2022/01/07 12:37:18;;;;;;;4.83;3.17;;;;;;;1.46;80.06;100437.38;1684772;84;21385;-82
2022/01/07 12:40:23;;;;;;;5.47;2.90;;;;;;;1.49;79.90;100449.26;1685093;84;21214;-77
2022/01/07 12:43:30;;;;;;;4.53;2.37;;;;;;;1.52;79.55;100443.66;1685172;85;21336;-77
2022/01/07 12:46:35;;;;;;;3.92;2.80;;;;;;;1.55;79.73;100444.75;1685187;84;21340;-81
2022/01/07 12:49:48;;;;;;;5.17;2.98;;;;;;;1.55;79.72;100447.44;1685182;85;21846;-80
2022/01/07 12:52:53;;;;;;;4.95;2.87;;;;;;;1.55;79.59;100447.44;1684946;85;21217;-76
2022/01/07 12:55:58;;;;;;;3.77;2.60;;;;;;;1.55;79.82;100452.84;1687981;84;21357;-81
2022/01/07 12:59:04;;;;;;;3.95;2.70;;;;;;;1.55;80.40;100458.23;1688036;85;21811;-77
2022/01/07 13:02:08;;;;;;;4.30;2.70;;;;;;;1.54;80.29;100468.16;1687757;84;21222;-76
2022/01/07 13:05:25;;;;;;;4.05;2.58;;;;;;;1.58;80.79;100475.53;1687893;84;21791;-77
2022/01/07 13:08:31;;;;;;;4.33;2.87;;;;;;;1.61;80.83;100474.45;1687910;85;21761;-77
2022/01/07 13:11:36;;;;;;;4.00;2.70;;;;;;;1.61;81.50;100487.45;1687932;84;21337;-77
2022/01/07 13:14:44;;;;;;;3.45;2.67;;;;;;;1.60;82.08;100490.23;1686472;85;21711;-77
2022/01/07 13:17:49;;;;;;;5.03;3.10;;;;;;;1.57;81.38;100495.39;1651641;85;21759;-82
2022/01/07 13:20:55;;;;;;;4.20;2.65;;;;;;;1.54;81.52;100497.81;1687750;84;21345;-77
2022/01/07 13:24:02;;;;;;;6.92;2.55;;;;;;;1.50;80.24;100504.40;1687723;85;21183;-82
2022/01/07 13:27:08;;;;;;;2.98;2.55;;;;;;;1.47;78.79;100506.48;1687763;84;21332;-78
2022/01/07 13:30:13;;;;;;;4.25;2.85;;;;;;;1.44;78.90;100503.52;1687775;84;21842;-82
2022/01/07 13:33:21;;;;;;;3.55;2.37;;;;;;;1.43;79.57;100514.42;1687847;85;21296;-79
2022/01/07 13:36:27;;;;;;;3.17;2.42;;;;;;;1.42;79.75;100518.09;1686880;84;21292;-81
2022/01/07 13:39:32;;;;;;;4.42;2.90;;;;;;;1.43;79.57;100525.20;1687777;85;21185;-77
2022/01/07 13:42:38;;;;;;;3.87;3.05;;;;;;;1.48;80.67;100524.38;1687809;85;21341;-77
2022/01/07 13:45:43;;;;;;;5.55;3.10;;;;;;;1.49;81.11;100524.25;1687728;84;21322;-77
2022/01/07 13:49:13;;;;;;;5.45;3.50;;;;;;;1.54;81.15;100530.66;1687772;85;21313;-81
2022/01/07 13:52:17;;;;;;;4.22;2.87;;;;;;;1.54;81.17;100527.95;1686006;84;21342;-81
2022/01/07 13:55:34;;;;;;;5.78;3.17;;;;;;;1.49;80.65;100537.73;1685102;84;21313;-77
2022/01/07 13:58:40;;;;;;;4.20;3.15;;;;;;;1.44;81.09;100550.69;1684907;85;21823;-80
2022/01/07 14:01:47;;;;;;;8.08;3.83;;;;;;;1.35;81.57;100555.89;1685136;84;21316;-77
2022/01/07 14:05:00;;;;;;;7.05;3.50;;;;;;;1.24;81.94;100560.23;1684990;85;21301;-77
2022/01/07 14:08:10;;;;;;;4.12;3.08;;;;;;;1.15;82.52;100566.28;1685039;85;21364;-79
2022/01/07 14:11:20;;;;;;;4.58;3.25;;;;;;;1.05;82.71;100566.56;1685111;84;21368;-77
2022/01/07 14:14:28;;;;;;;5.15;3.02;;;;;;;0.94;83.06;100574.53;1685086;85;21839;-81
2022/01/07 14:17:34;;;;;;;4.00;3.20;;;;;;;0.82;83.36;100583.00;1685220;85;21297;-81
2022/01/07 14:21:04;;;;;;;4.28;2.87;;;;;;;0.74;84.08;100579.97;1684937;84;21333;-81
2022/01/07 14:24:13;;;;;;;6.25;3.75;;;;;;;0.67;84.51;100578.20;1684958;85;21821;-82
2022/01/07 14:27:38;;;;;;;3.72;2.92;;;;;;;0.63;85.08;100591.50;1685107;84;21356;-82
2022/01/07 14:30:43;;;;;;;8.20;4.03;;;;;;;0.58;85.43;100599.52;1684934;84;21262;-77
2022/01/07 14:33:49;;;;;;;4.62;3.20;;;;;;;0.56;85.62;100608.16;1684926;85;21171;-82
2022/01/07 14:36:54;;;;;;;6.80;4.62;;;;;;;0.58;85.62;100601.72;1684896;84;21791;-82
2022/01/07 14:39:59;;;;;;;7.25;4.50;;;;;;;0.57;85.67;100600.00;1684834;85;21250;-79